createdAt,value
2023-04-14T00:00:41.075Z,7.00
2023-04-14T00:03:10.189Z,7.25
2023-04-14T00:05:38.790Z,8.00
2023-04-14T00:08:06.436Z,7.25
2023-04-14T00:10:34.992Z,9.00
2023-04-14T00:13:02.414Z,9.50
2023-04-14T00:15:33.381Z,6.75
2023-04-14T00:18:05.270Z,8.33
2023-04-14T00:20:32.753Z,8.25
2023-04-14T00:23:00.161Z,8.50
2023-04-14T00:25:28.155Z,7.00
2023-04-14T00:27:55.647Z,7.67
2023-04-14T00:30:23.217Z,10.00
2023-04-14T00:32:51.608Z,11.00
2023-04-14T00:35:19.111Z,7.00
2023-04-14T00:37:46.545Z,8.67
2023-04-14T00:40:14.178Z,8.25
2023-04-14T00:42:45.155Z,8.00
2023-04-14T00:45:14.244Z,7.00
2023-04-14T00:47:47.180Z,8.00
2023-04-14T00:50:17.017Z,10.00
2023-04-14T00:52:47.075Z,10.00
2023-04-14T00:55:17.935Z,11.33
2023-04-14T00:57:46.504Z,10.33
2023-04-14T01:00:15.888Z,13.33
2023-04-14T01:02:46.084Z,12.67
2023-04-14T01:05:14.473Z,12.33
2023-04-14T01:07:42.517Z,12.00
2023-04-14T01:10:11.504Z,13.00
2023-04-14T01:12:56.922Z,18.00
2023-04-14T01:15:39.050Z,14.33
2023-04-14T01:18:19.882Z,19.00
2023-04-14T01:20:55.040Z,18.00
2023-04-14T01:23:35.433Z,18.00
2023-04-14T01:26:10.490Z,18.25
2023-04-14T01:29:12.918Z,17.00
2023-04-14T01:31:44.949Z,17.00
2023-04-14T01:34:35.657Z,15.67
2023-04-14T01:37:15.813Z,16.67
2023-04-14T01:39:51.529Z,12.67
2023-04-14T01:42:23.848Z,14.67
2023-04-14T01:44:57.223Z,11.67
2023-04-14T01:47:26.779Z,12.00
2023-04-14T01:49:55.829Z,9.67
2023-04-14T01:52:23.583Z,13.33
2023-04-14T01:54:52.942Z,14.33
2023-04-14T01:57:25.401Z,12.33
2023-04-14T01:59:57.630Z,10.67
2023-04-14T02:02:27.726Z,12.33
2023-04-14T02:04:57.597Z,16.67
2023-04-14T02:07:26.672Z,14.33
2023-04-14T02:09:54.159Z,18.00
2023-04-14T02:12:30.880Z,15.00
2023-04-14T02:15:01.512Z,18.00
2023-04-14T02:17:31.168Z,20.75
2023-04-14T02:20:01.032Z,23.25
2023-04-14T02:22:28.887Z,21.75
2023-04-14T02:24:56.600Z,25.25
2023-04-14T02:27:48.845Z,28.00
2023-04-14T02:30:22.538Z,30.25
2023-04-14T02:32:57.587Z,25.75
2023-04-14T02:35:30.253Z,32.00
2023-04-14T02:38:07.160Z,31.00
2023-04-14T02:40:41.309Z,25.75
2023-04-14T02:43:17.913Z,32.75
2023-04-14T02:45:49.234Z,30.75
2023-04-14T02:48:25.116Z,32.00
2023-04-14T02:50:54.901Z,32.50
2023-04-14T02:53:25.290Z,32.00
2023-04-14T02:55:56.364Z,32.25
2023-04-14T02:58:25.679Z,22.75
2023-04-14T03:00:54.263Z,32.75
2023-04-14T03:03:28.610Z,31.75
2023-04-14T03:05:56.586Z,26.50
2023-04-14T03:08:24.129Z,28.25
2023-04-14T03:10:53.154Z,31.00
2023-04-14T03:13:24.007Z,33.75
2023-04-14T03:15:52.989Z,31.00
2023-04-14T03:18:21.977Z,28.50
2023-04-14T03:20:51.876Z,29.25
2023-04-14T03:23:22.041Z,28.50
2023-04-14T03:25:50.587Z,32.25
2023-04-14T03:28:23.046Z,33.00
2023-04-14T03:30:54.200Z,33.00
2023-04-14T03:33:29.300Z,30.75
2023-04-14T03:36:01.690Z,35.50
2023-04-14T03:38:31.896Z,31.25
2023-04-14T03:41:01.219Z,33.50
2023-04-14T03:43:31.567Z,31.00
2023-04-14T03:45:59.757Z,31.00
2023-04-14T03:48:34.374Z,30.25
2023-04-14T03:51:04.153Z,31.25
2023-04-14T03:53:34.931Z,31.00
2023-04-14T03:56:04.499Z,32.00
2023-04-14T03:58:36.107Z,35.50
2023-04-14T04:01:04.438Z,33.50
2023-04-14T04:03:35.800Z,32.50
2023-04-14T04:06:04.100Z,34.50
2023-04-14T04:08:33.465Z,24.00
2023-04-14T04:11:05.894Z,31.25
2023-04-14T04:13:36.967Z,32.50
2023-04-14T04:16:07.929Z,33.25
2023-04-14T04:18:38.995Z,32.25
2023-04-14T04:21:07.203Z,21.50
2023-04-14T04:23:35.620Z,28.25
2023-04-14T04:26:03.365Z,33.00
2023-04-14T04:28:47.381Z,29.50
2023-04-14T04:31:16.133Z,29.25
2023-04-14T04:33:46.083Z,29.25
2023-04-14T04:36:19.370Z,32.00
2023-04-14T04:38:46.972Z,27.50
2023-04-14T04:41:30.472Z,27.75
2023-04-14T04:43:59.160Z,25.67
2023-04-14T04:46:52.170Z,28.75
2023-04-14T04:49:21.087Z,18.00
2023-04-14T04:51:49.188Z,28.33
2023-04-14T04:54:17.096Z,26.75
2023-04-14T04:56:44.907Z,24.00
2023-04-14T04:59:12.604Z,26.00
2023-04-14T05:01:40.172Z,24.75
2023-04-14T05:04:07.688Z,27.25
2023-04-14T05:06:37.578Z,24.33
2023-04-14T05:09:12.118Z,30.25
2023-04-14T05:11:39.598Z,26.50
2023-04-14T05:14:07.417Z,30.33
2023-04-14T05:16:34.799Z,26.67
2023-04-14T05:19:05.156Z,17.00
2023-04-14T05:21:33.008Z,24.00
2023-04-14T05:24:00.642Z,25.00
2023-04-14T05:26:49.178Z,20.67
2023-04-14T05:29:16.395Z,25.33
2023-04-14T05:31:44.068Z,25.00
2023-04-14T05:34:11.651Z,15.00
2023-04-14T05:36:40.178Z,23.00
2023-04-14T05:39:07.529Z,23.67
2023-04-14T05:41:39.390Z,25.00
2023-04-14T05:44:06.906Z,28.00
2023-04-14T05:46:34.347Z,25.33
2023-04-14T05:49:02.183Z,25.33
2023-04-14T05:51:30.424Z,24.67
2023-04-14T05:54:01.283Z,19.00
2023-04-14T05:56:29.323Z,23.00
2023-04-14T05:58:57.151Z,22.33
2023-04-14T06:01:25.658Z,21.67
2023-04-14T06:03:54.833Z,15.67
2023-04-14T06:06:22.517Z,18.67
2023-04-14T06:08:50.460Z,14.00
2023-04-14T06:11:18.445Z,17.00
2023-04-14T06:13:46.236Z,20.67
2023-04-14T06:16:13.613Z,16.67
2023-04-14T06:18:42.634Z,15.00
2023-04-14T06:21:10.253Z,12.00
2023-04-14T06:23:38.218Z,14.00
2023-04-14T06:26:05.726Z,17.33
2023-04-14T06:28:36.569Z,12.67
2023-04-14T06:31:04.092Z,12.75
2023-04-14T06:33:31.820Z,17.67
2023-04-14T06:36:02.087Z,15.25
2023-04-14T06:38:30.362Z,10.25
2023-04-14T06:40:57.798Z,13.50
2023-04-14T06:43:25.152Z,10.50
2023-04-14T06:45:52.617Z,12.00
2023-04-14T06:48:20.397Z,13.75
2023-04-14T06:50:56.146Z,12.50
2023-04-14T06:53:24.324Z,10.50
2023-04-14T06:55:59.507Z,17.33
2023-04-14T06:58:31.170Z,12.00
2023-04-14T07:01:03.600Z,9.25
2023-04-14T07:03:32.078Z,9.75
2023-04-14T07:06:08.375Z,7.25
2023-04-14T07:08:37.039Z,13.25
2023-04-14T07:11:07.156Z,11.25
2023-04-14T07:13:35.838Z,11.50
2023-04-14T07:16:07.916Z,11.00
2023-04-14T07:18:36.334Z,11.00
2023-04-14T07:21:04.833Z,13.75
2023-04-14T07:23:33.841Z,10.00
2023-04-14T07:26:01.621Z,9.75
2023-04-14T07:28:29.360Z,9.25
2023-04-14T07:31:11.061Z,9.25
2023-04-14T07:33:39.880Z,11.75
2023-04-14T07:36:09.468Z,11.00
2023-04-14T07:38:37.319Z,10.50
2023-04-14T07:41:06.511Z,11.75
2023-04-14T07:43:37.328Z,7.00
2023-04-14T07:46:06.768Z,7.25
2023-04-14T07:48:37.719Z,7.75
2023-04-14T07:51:09.364Z,10.75
2023-04-14T07:53:42.473Z,6.25
2023-04-14T07:56:09.955Z,9.50
2023-04-14T07:58:40.455Z,12.75
2023-04-14T08:01:08.225Z,8.00
2023-04-14T08:03:40.156Z,9.75
2023-04-14T08:06:09.254Z,8.25
2023-04-14T08:08:38.285Z,8.25
2023-04-14T08:11:06.054Z,8.00
2023-04-14T08:13:33.893Z,6.75
2023-04-14T08:16:03.355Z,6.00
2023-04-14T08:18:31.520Z,8.75
2023-04-14T08:20:59.014Z,5.50
2023-04-14T08:23:27.415Z,8.00
2023-04-14T08:25:56.041Z,7.00
2023-04-14T08:28:23.750Z,6.75
2023-04-14T08:30:54.609Z,7.00
2023-04-14T08:33:22.886Z,8.75
2023-04-14T08:35:59.384Z,8.25
2023-04-14T08:38:28.953Z,8.00
2023-04-14T08:40:57.030Z,6.75
2023-04-14T08:43:24.601Z,7.75
2023-04-14T08:45:58.263Z,5.75
2023-04-14T08:48:30.765Z,12.25
2023-04-14T08:51:30.081Z,9.75
2023-04-14T08:53:58.488Z,11.50
2023-04-14T08:56:36.904Z,3.00
2023-04-14T08:59:08.615Z,8.25
2023-04-14T09:01:40.356Z,11.00
2023-04-14T09:04:08.824Z,12.00
2023-04-14T09:06:36.604Z,9.67
2023-04-14T09:09:08.947Z,13.50
2023-04-14T09:11:37.703Z,11.75
2023-04-14T09:14:05.202Z,15.00
2023-04-14T09:16:36.379Z,11.25
2023-04-14T09:19:07.604Z,10.50
2023-04-14T09:21:53.351Z,10.33
2023-04-14T09:24:34.193Z,10.00
2023-04-14T09:27:05.271Z,10.75
2023-04-14T09:29:33.676Z,12.00
2023-04-14T09:32:01.995Z,11.00
2023-04-14T09:34:29.737Z,13.00
2023-04-14T09:37:02.556Z,9.25
2023-04-14T09:39:46.718Z,11.25
2023-04-14T09:42:14.165Z,10.67
2023-04-14T09:44:58.043Z,10.50
2023-04-14T09:47:26.915Z,14.00
2023-04-14T09:50:00.301Z,10.50
2023-04-14T09:52:48.574Z,11.00
2023-04-14T09:55:17.203Z,9.50
2023-04-14T09:57:49.619Z,12.67
2023-04-14T10:00:18.094Z,10.00
2023-04-14T10:03:05.574Z,13.33
2023-04-14T10:05:34.772Z,11.00
2023-04-14T10:08:04.011Z,11.50
2023-04-14T10:10:31.793Z,13.00
2023-04-14T10:13:00.662Z,13.33
2023-04-14T10:15:30.712Z,11.00
2023-04-14T10:17:59.337Z,13.33
2023-04-14T10:20:31.486Z,10.00
2023-04-14T10:23:00.759Z,13.33
2023-04-14T10:25:31.224Z,11.00
2023-04-14T10:28:00.361Z,16.67
2023-04-14T10:30:28.940Z,10.33
2023-04-14T10:32:57.754Z,15.33
2023-04-14T10:35:25.323Z,13.00
2023-04-14T10:37:53.780Z,16.00
2023-04-14T10:40:23.013Z,16.33
2023-04-14T10:42:55.787Z,16.33
2023-04-14T10:45:23.444Z,14.33
2023-04-14T10:47:51.449Z,13.00
2023-04-14T10:50:22.845Z,16.00
2023-04-14T10:52:58.994Z,17.00
2023-04-14T10:55:30.639Z,17.67
2023-04-14T10:58:09.025Z,23.50
2023-04-14T11:00:39.659Z,21.00
2023-04-14T11:03:13.443Z,27.25
2023-04-14T11:05:48.027Z,29.50
2023-04-14T11:08:19.674Z,33.75
2023-04-14T11:10:53.510Z,32.67
2023-04-14T11:13:21.276Z,29.75
2023-04-14T11:16:01.756Z,34.25
2023-04-14T11:18:29.614Z,24.33
2023-04-14T11:21:10.865Z,21.00
2023-04-14T11:23:41.575Z,18.67
2023-04-14T11:26:11.587Z,25.50
2023-04-14T11:28:47.013Z,21.67
2023-04-14T11:31:17.221Z,20.00
2023-04-14T11:33:45.083Z,26.00
2023-04-14T11:36:13.529Z,22.67
2023-04-14T11:38:42.723Z,23.33
2023-04-14T11:41:10.554Z,19.00
2023-04-14T11:43:46.555Z,12.67
2023-04-14T11:46:15.845Z,19.67
2023-04-14T11:48:44.293Z,15.67
2023-04-14T11:51:11.751Z,19.67
2023-04-14T11:53:40.759Z,32.75
2023-04-14T11:56:09.169Z,25.00
2023-04-14T11:58:37.283Z,23.33
2023-04-14T12:01:04.831Z,20.33
2023-04-14T12:03:37.191Z,17.33
2023-04-14T12:06:05.504Z,18.67
2023-04-14T12:08:34.012Z,18.00
2023-04-14T12:11:16.471Z,12.33
2023-04-14T12:13:46.603Z,12.33
2023-04-14T12:16:16.595Z,13.00
2023-04-14T12:18:47.520Z,16.33
2023-04-14T12:21:19.673Z,18.67
2023-04-14T12:23:48.639Z,18.00
2023-04-14T12:26:19.821Z,16.33
2023-04-14T12:28:55.637Z,12.00
2023-04-14T12:31:29.986Z,11.00
2023-04-14T12:34:01.992Z,12.75
2023-04-14T12:36:45.342Z,11.00
2023-04-14T12:39:24.077Z,12.50
2023-04-14T12:41:51.596Z,15.50
2023-04-14T12:44:24.520Z,16.00
2023-04-14T12:46:53.959Z,16.75
2023-04-14T12:49:37.655Z,21.00
2023-04-14T12:52:08.302Z,30.67
2023-04-14T12:54:51.768Z,22.00
2023-04-14T12:57:22.272Z,24.00
2023-04-14T12:59:50.738Z,18.67
2023-04-14T13:02:18.824Z,20.00
2023-04-14T13:04:46.400Z,18.00
2023-04-14T13:07:13.727Z,16.33
2023-04-14T13:09:43.682Z,19.00
2023-04-14T13:12:11.481Z,18.33
2023-04-14T13:14:40.813Z,20.00
2023-04-14T13:17:08.704Z,28.33
2023-04-14T13:19:36.281Z,15.00
2023-04-14T13:22:03.755Z,12.33
2023-04-14T13:24:32.068Z,19.33
2023-04-14T13:26:59.600Z,19.67
2023-04-14T13:29:34.035Z,14.67
2023-04-14T13:32:02.246Z,16.00
2023-04-14T13:34:29.955Z,19.00
2023-04-14T13:36:57.767Z,16.00
2023-04-14T13:39:25.257Z,18.33
2023-04-14T13:41:52.687Z,16.00
2023-04-14T13:44:20.334Z,13.00
2023-04-14T13:46:49.525Z,16.00
2023-04-14T13:49:17.051Z,15.50
2023-04-14T13:51:44.998Z,20.33
2023-04-14T13:54:12.370Z,15.00
2023-04-14T13:56:40.491Z,14.67
2023-04-14T13:59:08.309Z,12.75
2023-04-14T14:01:37.171Z,12.00
2023-04-14T14:04:05.973Z,11.25
2023-04-14T14:06:33.530Z,14.00
2023-04-14T14:09:05.292Z,16.00
2023-04-14T14:11:34.784Z,15.67
2023-04-14T14:14:03.645Z,13.00
2023-04-14T14:16:36.735Z,13.33
2023-04-14T14:19:10.054Z,16.33
2023-04-14T14:21:38.005Z,12.33
2023-04-14T14:24:05.618Z,16.00
2023-04-14T14:26:34.538Z,13.67
2023-04-14T14:29:02.226Z,13.00
2023-04-14T14:31:29.774Z,11.00
2023-04-14T14:33:58.131Z,11.67
2023-04-14T14:36:27.612Z,16.00
2023-04-14T14:38:55.064Z,12.67
2023-04-14T14:41:22.722Z,13.00
2023-04-14T14:43:51.324Z,12.33
2023-04-14T14:46:22.438Z,10.00
2023-04-14T14:48:49.820Z,12.33
2023-04-14T14:51:17.345Z,17.00
2023-04-14T14:53:45.663Z,18.00
2023-04-14T14:56:13.376Z,16.67
2023-04-14T14:58:41.333Z,19.67
2023-04-14T15:01:17.064Z,19.33
2023-04-14T15:03:45.880Z,14.33
2023-04-14T15:06:13.636Z,16.33
2023-04-14T15:08:41.197Z,14.00
2023-04-14T15:11:08.735Z,11.33
2023-04-14T15:13:36.321Z,11.00
2023-04-14T15:16:04.687Z,13.67
2023-04-14T15:18:35.416Z,11.00
2023-04-14T15:21:03.207Z,12.00
2023-04-14T15:23:35.485Z,12.33
2023-04-14T15:26:04.254Z,14.50
2023-04-14T15:28:31.884Z,15.67
2023-04-14T15:30:59.483Z,16.00
2023-04-14T15:33:29.197Z,13.33
2023-04-14T15:35:57.072Z,16.33
2023-04-14T15:38:25.377Z,15.33
2023-04-14T15:40:53.809Z,13.67
2023-04-14T15:43:21.682Z,16.00
2023-04-14T15:45:49.070Z,15.75
2023-04-14T15:48:16.541Z,18.00
2023-04-14T15:50:46.118Z,16.00
2023-04-14T15:53:13.730Z,13.75
2023-04-14T15:55:41.140Z,8.75
2023-04-14T15:58:11.789Z,15.00
2023-04-14T16:00:40.057Z,18.75
2023-04-14T16:03:08.083Z,16.75
2023-04-14T16:05:40.989Z,16.75
2023-04-14T16:08:09.163Z,13.50
2023-04-14T16:10:40.985Z,17.75
2023-04-14T16:13:19.374Z,16.00
2023-04-14T16:15:48.691Z,15.50
2023-04-14T16:18:16.886Z,9.25
2023-04-14T16:20:44.340Z,12.50
2023-04-14T16:23:12.348Z,9.00
2023-04-14T16:25:40.262Z,6.67
2023-04-14T16:28:07.801Z,8.25
2023-04-14T16:30:36.561Z,8.00
2023-04-14T16:33:23.152Z,10.00
2023-04-14T16:35:50.627Z,7.33
2023-04-14T16:38:21.742Z,6.00
2023-04-14T16:40:58.785Z,6.00
2023-04-14T16:43:28.138Z,8.00
2023-04-14T16:46:05.652Z,10.33
2023-04-14T16:48:35.145Z,11.67
2023-04-14T16:51:05.060Z,9.50
2023-04-14T16:53:32.717Z,10.00
2023-04-14T16:56:10.646Z,6.25
2023-04-14T16:58:39.067Z,8.00
2023-04-14T17:01:07.345Z,6.00
2023-04-14T17:03:35.853Z,6.00
2023-04-14T17:06:04.990Z,7.00
2023-04-14T17:08:34.541Z,7.00
2023-04-14T17:11:02.346Z,6.75
2023-04-14T17:13:30.122Z,9.50
2023-04-14T17:16:08.342Z,11.00
2023-04-14T17:18:38.185Z,9.25
2023-04-14T17:21:08.982Z,9.75
2023-04-14T17:23:41.015Z,7.00
2023-04-14T17:26:09.950Z,5.00
2023-04-14T17:28:38.744Z,6.75
2023-04-14T17:31:13.898Z,5.75
2023-04-14T17:33:44.504Z,6.00
2023-04-14T17:36:14.881Z,7.00
2023-04-14T17:38:43.278Z,7.25
2023-04-14T17:41:12.760Z,9.25
2023-04-14T17:43:43.844Z,8.75
2023-04-14T17:46:12.145Z,9.00
2023-04-14T17:48:40.510Z,10.25
2023-04-14T17:51:08.261Z,13.00
2023-04-14T17:53:36.785Z,8.50
2023-04-14T17:56:04.812Z,8.50
2023-04-14T17:58:33.425Z,12.50
2023-04-14T18:01:01.289Z,11.00
2023-04-14T18:03:30.793Z,10.00
2023-04-14T18:05:58.352Z,8.00
2023-04-14T18:08:26.000Z,8.50
2023-04-14T18:10:53.504Z,12.50
2023-04-14T18:13:21.224Z,14.50
2023-04-14T18:15:49.788Z,11.75
2023-04-14T18:18:20.176Z,5.75
2023-04-14T18:20:50.422Z,11.75
2023-04-14T18:23:19.129Z,15.75
2023-04-14T18:28:17.700Z,11.00
2023-04-14T18:30:52.755Z,9.25
2023-04-14T18:33:20.960Z,11.75
2023-04-14T18:35:52.945Z,10.50
2023-04-14T18:38:20.360Z,10.50
2023-04-14T18:40:51.219Z,7.00
2023-04-14T18:43:19.476Z,7.50
2023-04-14T18:45:49.961Z,9.50
2023-04-14T18:48:18.638Z,9.50
2023-04-14T18:50:46.761Z,8.75
2023-04-14T18:53:14.826Z,10.00
2023-04-14T18:55:47.385Z,9.75
2023-04-14T18:58:16.276Z,11.75
2023-04-14T19:00:45.233Z,8.75
2023-04-14T19:03:17.118Z,8.75
2023-04-14T19:05:44.958Z,7.00
2023-04-14T19:08:12.532Z,9.25
2023-04-14T19:10:41.070Z,6.00
2023-04-14T19:13:12.772Z,12.00
2023-04-14T19:15:40.373Z,11.25
2023-04-14T19:18:07.894Z,6.50
2023-04-14T19:20:37.720Z,7.00
2023-04-14T19:23:05.668Z,8.25
2023-04-14T19:25:35.171Z,13.75
2023-04-14T19:28:04.309Z,12.75
2023-04-14T19:30:33.727Z,11.25
2023-04-14T19:33:02.114Z,13.75
2023-04-14T19:35:31.169Z,11.25
2023-04-14T19:37:58.732Z,13.00
2023-04-14T19:40:26.588Z,13.50
2023-04-14T19:42:57.811Z,13.00
2023-04-14T19:45:25.400Z,11.50
2023-04-14T19:47:57.707Z,11.00
2023-04-14T19:50:25.650Z,9.25
2023-04-14T19:52:54.085Z,9.75
2023-04-14T19:55:21.706Z,12.00
2023-04-14T19:57:49.266Z,20.50
2023-04-14T20:00:17.119Z,15.50
2023-04-14T20:02:45.662Z,16.50
2023-04-14T20:05:13.280Z,10.75
2023-04-14T20:07:44.402Z,10.75
2023-04-14T20:10:11.978Z,10.00
2023-04-14T20:12:40.451Z,12.50
2023-04-14T20:15:12.144Z,14.00
2023-04-14T20:17:42.999Z,14.25
2023-04-14T20:20:13.776Z,16.75
2023-04-14T20:22:41.318Z,12.75
2023-04-14T20:25:10.638Z,17.00
2023-04-14T20:27:39.087Z,20.00
2023-04-14T20:30:12.531Z,8.00
2023-04-14T20:32:42.882Z,25.50
2023-04-14T20:35:11.341Z,23.25
2023-04-14T20:37:39.073Z,24.50
2023-04-14T20:40:09.425Z,24.50
2023-04-14T20:42:38.198Z,24.50
2023-04-14T20:45:06.243Z,21.75
2023-04-14T20:47:35.512Z,17.75
2023-04-14T20:50:03.936Z,16.50
2023-04-14T20:52:32.074Z,16.25
2023-04-14T20:55:02.674Z,11.75
2023-04-14T20:57:30.618Z,18.75
2023-04-14T20:59:58.246Z,16.75
2023-04-14T21:02:26.363Z,20.75
2023-04-14T21:04:56.884Z,10.25
2023-04-14T21:07:24.455Z,17.00
2023-04-14T21:09:51.854Z,20.50
2023-04-14T21:12:19.243Z,18.25
2023-04-14T21:15:40.249Z,18.50
2023-04-14T21:17:35.989Z,16.00
2023-04-14T21:20:06.767Z,16.75
2023-04-14T21:22:35.282Z,17.75
2023-04-14T21:25:03.012Z,22.00
2023-04-14T21:27:30.791Z,18.75
2023-04-14T21:29:59.205Z,26.75
2023-04-14T21:32:28.600Z,29.25
2023-04-14T21:34:56.095Z,35.50
2023-04-14T21:37:23.588Z,30.00
2023-04-14T21:39:50.930Z,32.00
2023-04-14T21:42:20.056Z,26.50
2023-04-14T21:44:49.321Z,25.25
2023-04-14T21:47:16.812Z,17.50
2023-04-14T21:49:44.831Z,8.00
2023-04-14T21:52:12.275Z,8.50
2023-04-14T21:54:41.946Z,5.75
2023-04-14T21:57:09.795Z,7.25
2023-04-14T21:59:43.154Z,5.00
2023-04-14T22:02:11.911Z,4.75
2023-04-14T22:04:39.616Z,7.75
2023-04-14T22:07:07.106Z,6.00
2023-04-14T22:09:37.737Z,3.75
2023-04-14T22:12:05.280Z,5.00
2023-04-14T22:14:32.887Z,4.00
2023-04-14T22:17:04.619Z,5.50
2023-04-14T22:19:33.049Z,4.75
2023-04-14T22:22:01.174Z,6.75
2023-04-14T22:24:28.784Z,6.00
2023-04-14T22:26:57.548Z,6.00
2023-04-14T22:29:24.980Z,4.00
2023-04-14T22:31:53.395Z,4.00
2023-04-14T22:34:20.977Z,4.00
2023-04-14T22:36:49.074Z,4.50
2023-04-14T22:39:16.438Z,4.00
2023-04-14T22:41:49.797Z,3.50
2023-04-14T22:44:19.015Z,3.25
2023-04-14T22:46:46.780Z,3.75
2023-04-14T22:49:14.102Z,3.25
2023-04-14T22:51:41.641Z,4.00
2023-04-14T22:54:10.917Z,3.75
2023-04-14T22:56:38.485Z,3.00
2023-04-14T22:59:05.936Z,4.00
2023-04-14T23:01:34.358Z,3.00
2023-04-14T23:04:02.627Z,4.00
2023-04-14T23:06:30.232Z,4.25
2023-04-14T23:08:59.760Z,3.75
2023-04-14T23:11:28.297Z,5.00
2023-04-14T23:13:56.728Z,3.75
2023-04-14T23:16:28.895Z,6.00
2023-04-14T23:19:07.097Z,3.25
2023-04-14T23:21:35.301Z,4.25
2023-04-14T23:24:02.638Z,3.00
2023-04-14T23:26:41.417Z,4.00
2023-04-14T23:29:11.317Z,2.50
2023-04-14T23:31:38.948Z,7.25
2023-04-14T23:34:09.285Z,4.25
2023-04-14T23:36:37.782Z,6.25
2023-04-14T23:39:05.818Z,2.75
2023-04-14T23:41:36.133Z,7.00
2023-04-14T23:44:04.651Z,5.25
2023-04-14T23:46:32.718Z,5.25
2023-04-14T23:49:10.479Z,6.00
2023-04-14T23:51:49.120Z,8.50
2023-04-14T23:54:16.469Z,9.00
2023-04-14T23:56:44.482Z,8.75
2023-04-14T23:59:12.621Z,5.00
